createdAt,value
2023-01-02T00:01:43.413Z,10.60
2023-01-02T00:04:12.112Z,10.60
2023-01-02T00:06:41.311Z,10.60
2023-01-02T00:09:10.431Z,10.60
2023-01-02T00:11:38.861Z,10.50
2023-01-02T00:14:08.723Z,10.60
2023-01-02T00:16:37.206Z,10.60
2023-01-02T00:19:05.918Z,10.60
2023-01-02T00:21:34.489Z,10.60
2023-01-02T00:24:02.835Z,10.60
2023-01-02T00:26:32.327Z,10.60
2023-01-02T00:29:01.958Z,10.60
2023-01-02T00:31:31.987Z,10.60
2023-01-02T00:34:00.446Z,10.60
2023-01-02T00:36:28.952Z,10.60
2023-01-02T00:38:58.140Z,10.50
2023-01-02T00:41:26.691Z,10.50
2023-01-02T00:43:55.177Z,10.50
2023-01-02T00:46:23.633Z,10.50
2023-01-02T00:48:53.564Z,10.50
2023-01-02T00:51:22.183Z,10.50
2023-01-02T00:53:50.586Z,10.50
2023-01-02T00:56:19.040Z,10.50
2023-01-02T00:58:47.645Z,10.40
2023-01-02T01:01:16.151Z,10.40
2023-01-02T01:03:44.643Z,10.40
2023-01-02T01:06:15.716Z,10.40
2023-01-02T01:08:44.277Z,10.40
2023-01-02T01:11:14.806Z,10.40
2023-01-02T01:13:43.678Z,10.40
2023-01-02T01:16:14.306Z,10.30
2023-01-02T01:18:43.475Z,10.30
2023-01-02T01:21:15.027Z,10.40
2023-01-02T01:23:46.286Z,10.30
2023-01-02T01:26:15.177Z,10.30
2023-01-02T01:28:43.747Z,10.30
2023-01-02T01:31:13.890Z,10.30
2023-01-02T01:33:44.081Z,10.30
2023-01-02T01:36:15.760Z,10.30
2023-01-02T01:38:44.751Z,10.20
2023-01-02T01:41:14.659Z,10.20
2023-01-02T01:43:45.943Z,10.20
2023-01-02T01:46:26.986Z,10.20
2023-01-02T01:49:01.332Z,10.20
2023-01-02T01:51:33.779Z,10.20
2023-01-02T01:54:08.098Z,10.30
2023-01-02T01:56:40.303Z,10.20
2023-01-02T01:59:11.192Z,10.30
2023-01-02T02:01:41.315Z,10.30
2023-01-02T02:04:10.761Z,10.30
2023-01-02T02:06:41.095Z,10.20
2023-01-02T02:09:15.492Z,10.20
2023-01-02T02:11:45.045Z,10.20
2023-01-02T02:14:13.544Z,10.30
2023-01-02T02:16:50.290Z,10.20
2023-01-02T02:19:46.720Z,10.20
2023-01-02T02:22:44.010Z,10.30
2023-01-02T02:25:54.156Z,10.20
2023-01-02T02:28:45.683Z,10.30
2023-01-02T02:31:21.785Z,10.30
2023-01-02T02:33:57.460Z,10.30
2023-01-02T02:36:34.073Z,10.30
2023-01-02T02:39:12.715Z,10.30
2023-01-02T02:41:47.699Z,10.30
2023-01-02T02:44:29.577Z,10.30
2023-01-02T02:47:05.064Z,10.30
2023-01-02T02:49:44.553Z,10.30
2023-01-02T02:52:22.900Z,10.30
2023-01-02T02:54:58.257Z,10.30
2023-01-02T02:57:27.535Z,10.30
2023-01-02T02:59:56.333Z,10.30
2023-01-02T03:02:26.411Z,10.30
2023-01-02T03:04:59.325Z,10.30
2023-01-02T03:07:33.810Z,10.20
2023-01-02T03:10:16.301Z,10.20
2023-01-02T03:12:51.890Z,10.20
2023-01-02T03:15:25.536Z,10.20
2023-01-02T03:18:14.399Z,10.20
2023-01-02T03:20:45.866Z,10.20
2023-01-02T03:23:22.130Z,10.20
2023-01-02T03:25:52.242Z,10.10
2023-01-02T03:28:23.603Z,10.10
2023-01-02T03:30:57.142Z,10.10
2023-01-02T03:33:32.896Z,10.10
2023-01-02T03:36:05.335Z,10.10
2023-01-02T03:38:37.241Z,10.10
2023-01-02T03:41:12.704Z,10.10
2023-01-02T03:43:42.903Z,10.10
2023-01-02T03:46:16.492Z,10.10
2023-01-02T03:48:51.190Z,10.10
2023-01-02T03:51:19.761Z,10.10
2023-01-02T03:53:50.293Z,10.00
2023-01-02T03:56:26.330Z,10.00
2023-01-02T03:59:00.257Z,10.00
2023-01-02T04:01:37.129Z,10.00
2023-01-02T04:04:13.203Z,10.00
2023-01-02T04:06:46.832Z,10.00
2023-01-02T04:09:20.062Z,10.00
2023-01-02T04:11:52.374Z,10.00
2023-01-02T04:14:25.426Z,10.00
2023-01-02T04:16:55.515Z,10.00
2023-01-02T04:19:28.019Z,10.00
2023-01-02T04:22:00.449Z,10.00
2023-01-02T04:24:33.625Z,10.00
2023-01-02T04:27:06.254Z,10.00
2023-01-02T04:29:35.041Z,9.90
2023-01-02T04:32:08.914Z,9.90
2023-01-02T04:34:41.765Z,9.90
2023-01-02T04:37:10.371Z,9.90
2023-01-02T04:39:39.700Z,9.90
2023-01-02T04:42:08.315Z,9.90
2023-01-02T04:44:36.734Z,9.90
2023-01-02T04:47:05.331Z,9.80
2023-01-02T04:49:33.841Z,9.80
2023-01-02T04:52:04.191Z,9.80
2023-01-02T04:54:32.532Z,9.80
2023-01-02T04:57:01.707Z,9.80
2023-01-02T04:59:30.282Z,9.80
2023-01-02T05:02:01.601Z,9.80
2023-01-02T05:04:32.030Z,9.70
2023-01-02T05:07:00.611Z,9.70
2023-01-02T05:09:30.760Z,9.70
2023-01-02T05:11:59.352Z,9.70
2023-01-02T05:14:27.813Z,9.70
2023-01-02T05:16:56.297Z,9.70
2023-01-02T05:19:25.230Z,9.70
2023-01-02T05:22:10.813Z,9.70
2023-01-02T05:24:40.870Z,9.80
2023-01-02T05:27:09.375Z,9.70
2023-01-02T05:29:37.903Z,9.70
2023-01-02T05:32:06.695Z,9.70
2023-01-02T05:34:40.052Z,9.70
2023-01-02T05:37:08.568Z,9.70
2023-01-02T05:39:37.314Z,9.70
2023-01-02T05:42:07.368Z,9.70
2023-01-02T05:44:37.815Z,9.70
2023-01-02T05:47:06.605Z,9.70
2023-01-02T05:49:37.530Z,9.70
2023-01-02T05:52:06.121Z,9.70
2023-01-02T05:54:34.605Z,9.70
2023-01-02T05:57:03.327Z,9.80
2023-01-02T05:59:36.135Z,9.70
2023-01-02T06:02:05.170Z,9.80
2023-01-02T06:04:33.882Z,9.80
2023-01-02T06:07:04.113Z,9.70
2023-01-02T06:09:32.523Z,9.80
2023-01-02T06:12:00.860Z,9.80
2023-01-02T06:14:29.186Z,9.80
2023-01-02T06:16:58.943Z,9.80
2023-01-02T06:19:27.300Z,9.80
2023-01-02T06:21:58.341Z,9.70
2023-01-02T06:24:26.637Z,9.80
2023-01-02T06:26:55.754Z,9.80
2023-01-02T06:29:24.146Z,9.80
2023-01-02T06:31:54.515Z,9.80
2023-01-02T06:34:24.287Z,9.70
2023-01-02T06:36:52.736Z,9.70
2023-01-02T06:39:21.081Z,9.80
2023-01-02T06:41:49.480Z,9.80
2023-01-02T06:44:21.042Z,9.80
2023-01-02T06:46:49.337Z,9.80
2023-01-02T06:49:20.473Z,9.80
2023-01-02T06:51:50.407Z,9.90
2023-01-02T06:54:18.790Z,9.90
2023-01-02T06:56:47.196Z,9.90
2023-01-02T06:59:15.597Z,9.90
2023-01-02T07:01:44.048Z,10.00
2023-01-02T07:04:16.934Z,10.00
2023-01-02T07:06:45.284Z,10.10
2023-01-02T07:09:18.141Z,10.10
2023-01-02T07:11:46.482Z,10.10
2023-01-02T07:14:17.562Z,10.20
2023-01-02T07:16:45.920Z,10.20
2023-01-02T07:19:16.785Z,10.30
2023-01-02T07:21:45.213Z,10.30
2023-01-02T07:24:16.471Z,10.40
2023-01-02T07:26:44.980Z,10.40
2023-01-02T07:29:13.292Z,10.50
2023-01-02T07:31:47.518Z,10.50
2023-01-02T07:34:15.947Z,10.60
2023-01-02T07:36:44.297Z,10.60
2023-01-02T07:39:12.666Z,10.70
2023-01-02T07:41:43.289Z,10.70
2023-01-02T07:44:11.604Z,10.80
2023-01-02T07:46:40.118Z,10.90
2023-01-02T07:49:08.689Z,10.90
2023-01-02T07:51:37.311Z,11.00
2023-01-02T07:54:06.503Z,11.00
2023-01-02T07:56:35.035Z,11.00
2023-01-02T07:59:05.012Z,11.10
2023-01-02T08:01:33.632Z,11.20
2023-01-02T08:04:10.556Z,11.20
2023-01-02T08:06:47.063Z,11.30
2023-01-02T08:09:15.848Z,11.40
2023-01-02T08:11:47.419Z,11.40
2023-01-02T08:14:23.202Z,11.50
2023-01-02T08:16:52.178Z,11.50
2023-01-02T08:19:20.591Z,11.60
2023-01-02T08:21:48.981Z,11.70
2023-01-02T08:24:17.505Z,11.80
2023-01-02T08:26:45.841Z,11.80
2023-01-02T08:29:14.293Z,11.90
2023-01-02T08:31:44.323Z,11.90
2023-01-02T08:34:15.395Z,12.00
2023-01-02T08:36:43.953Z,12.00
2023-01-02T08:39:12.424Z,12.10
2023-01-02T08:41:41.817Z,12.20
2023-01-02T08:44:10.289Z,12.30
2023-01-02T08:46:42.803Z,12.30
2023-01-02T08:49:13.537Z,12.40
2023-01-02T08:51:41.916Z,12.50
2023-01-02T08:54:10.267Z,12.50
2023-01-02T08:56:38.885Z,12.60
2023-01-02T08:59:09.237Z,12.70
2023-01-02T09:01:38.141Z,12.80
2023-01-02T09:04:12.078Z,12.80
2023-01-02T09:06:45.544Z,12.90
2023-01-02T09:09:15.710Z,13.10
2023-01-02T09:11:49.092Z,13.20
2023-01-02T09:14:18.228Z,13.20
2023-01-02T09:16:46.647Z,13.30
2023-01-02T09:19:15.080Z,13.40
2023-01-02T09:21:45.109Z,13.40
2023-01-02T09:24:13.954Z,13.50
2023-01-02T09:26:42.883Z,13.60
2023-01-02T09:29:11.731Z,13.70
2023-01-02T09:31:41.561Z,13.70
2023-01-02T09:34:10.057Z,13.80
2023-01-02T09:36:38.607Z,13.90
2023-01-02T09:39:08.312Z,13.90
2023-01-02T09:41:39.642Z,14.00
2023-01-02T09:44:14.662Z,14.00
2023-01-02T09:46:47.447Z,14.10
2023-01-02T09:49:18.909Z,14.20
2023-01-02T09:51:47.705Z,14.30
2023-01-02T09:54:23.366Z,14.40
2023-01-02T09:57:01.058Z,14.50
2023-01-02T09:59:33.898Z,14.60
2023-01-02T10:02:18.986Z,14.60
2023-01-02T10:05:02.620Z,14.70
2023-01-02T10:07:38.332Z,14.80
2023-01-02T10:10:15.390Z,14.90
2023-01-02T10:12:54.566Z,14.90
2023-01-02T10:15:27.589Z,15.00
2023-01-02T10:18:01.855Z,15.10
2023-01-02T10:20:37.126Z,15.20
2023-01-02T10:23:11.367Z,15.20
2023-01-02T10:25:51.092Z,15.30
2023-01-02T10:28:28.285Z,15.40
2023-01-02T10:31:06.996Z,15.40
2023-01-02T10:33:45.601Z,15.50
2023-01-02T10:36:26.974Z,15.50
2023-01-02T10:38:59.288Z,15.60
2023-01-02T10:41:30.905Z,15.70
2023-01-02T10:44:03.652Z,15.70
2023-01-02T10:46:35.280Z,15.80
2023-01-02T10:49:04.621Z,15.80
2023-01-02T10:51:33.511Z,15.90
2023-01-02T10:54:04.161Z,16.00
2023-01-02T10:56:36.191Z,16.00
2023-01-02T10:59:05.461Z,16.10
2023-01-02T11:01:34.288Z,16.20
2023-01-02T11:04:14.442Z,16.40
2023-01-02T11:06:53.532Z,16.40
2023-01-02T11:09:23.549Z,16.40
2023-01-02T11:11:56.068Z,16.50
2023-01-02T11:14:32.531Z,16.50
2023-01-02T11:17:06.143Z,16.60
2023-01-02T11:19:41.323Z,16.70
2023-01-02T11:22:10.887Z,16.70
2023-01-02T11:24:59.905Z,16.70
2023-01-02T11:27:33.159Z,16.80
2023-01-02T11:30:02.255Z,16.80
2023-01-02T11:32:38.648Z,16.90
2023-01-02T11:35:28.282Z,17.00
2023-01-02T11:37:56.613Z,17.00
2023-01-02T11:40:28.959Z,17.10
2023-01-02T11:43:23.608Z,17.10
2023-01-02T11:45:53.355Z,17.20
2023-01-02T11:48:26.765Z,17.20
2023-01-02T11:50:55.369Z,17.30
2023-01-02T11:53:30.343Z,17.30
2023-01-02T11:56:03.882Z,17.40
2023-01-02T11:58:40.572Z,17.40
2023-01-02T12:01:18.804Z,17.40
2023-01-02T12:03:47.544Z,17.50
2023-01-02T12:06:21.650Z,17.50
2023-01-02T12:09:04.582Z,17.60
2023-01-02T12:11:44.928Z,17.60
2023-01-02T12:14:19.293Z,17.70
2023-01-02T12:16:55.016Z,17.70
2023-01-02T12:20:05.380Z,17.80
2023-01-02T12:22:55.553Z,17.80
2023-01-02T12:25:43.192Z,17.80
2023-01-02T12:28:45.507Z,17.90
2023-01-02T12:31:31.046Z,17.90
2023-01-02T12:34:09.520Z,18.00
2023-01-02T12:36:49.781Z,18.00
2023-01-02T12:39:50.543Z,18.00
2023-01-02T12:42:32.889Z,18.00
2023-01-02T12:45:01.895Z,18.10
2023-01-02T12:47:40.781Z,18.10
2023-01-02T12:50:48.793Z,18.20
2023-01-02T12:53:28.699Z,18.20
2023-01-02T12:56:08.317Z,18.20
2023-01-02T12:58:51.497Z,18.20
2023-01-02T13:01:27.643Z,18.30
2023-01-02T13:04:03.779Z,18.40
2023-01-02T13:06:47.120Z,18.40
2023-01-02T13:09:25.011Z,18.50
2023-01-02T13:12:00.033Z,18.80
2023-01-02T13:14:36.949Z,19.00
2023-01-02T13:17:25.831Z,19.40
2023-01-02T13:20:00.369Z,19.60
2023-01-02T13:22:39.321Z,19.80
2023-01-02T13:25:15.613Z,20.00
2023-01-02T13:27:45.857Z,20.10
2023-01-02T13:31:11.206Z,20.10
2023-01-02T13:33:47.903Z,20.70
2023-01-02T13:36:22.328Z,22.00
2023-01-02T13:38:53.448Z,24.20
2023-01-02T13:41:22.821Z,25.70
2023-01-02T13:43:54.736Z,25.40
2023-01-02T13:47:01.969Z,27.40
2023-01-02T13:49:21.560Z,28.10
2023-01-02T13:51:52.128Z,28.80
2023-01-02T13:54:21.659Z,30.20
2023-01-02T13:57:31.368Z,30.60
2023-01-02T14:00:02.308Z,29.20
2023-01-02T14:02:31.089Z,28.40
2023-01-02T14:04:59.523Z,27.90
2023-01-02T14:07:45.124Z,27.90
2023-01-02T14:10:42.016Z,27.60
2023-01-02T14:13:20.435Z,26.70
2023-01-02T14:16:31.734Z,25.70
2023-01-02T14:19:24.821Z,25.00
2023-01-02T14:22:05.431Z,24.50
2023-01-02T14:24:38.978Z,23.70
2023-01-02T14:27:18.259Z,23.10
2023-01-02T14:29:53.180Z,22.60
2023-01-02T14:32:26.556Z,22.10
2023-01-02T14:34:57.885Z,21.70
2023-01-02T14:37:34.682Z,21.30
2023-01-02T14:40:20.224Z,21.00
2023-01-02T14:43:11.939Z,20.60
2023-01-02T14:45:44.757Z,20.30
2023-01-02T14:48:17.592Z,20.00
2023-01-02T14:50:49.136Z,19.80
2023-01-02T14:53:21.651Z,19.50
2023-01-02T14:55:53.682Z,19.40
2023-01-02T14:58:27.098Z,19.20
2023-01-02T15:01:03.966Z,19.00
2023-01-02T15:03:42.085Z,18.80
2023-01-02T15:06:16.845Z,18.60
2023-01-02T15:08:49.389Z,18.50
2023-01-02T15:11:39.041Z,18.30
2023-01-02T15:14:08.401Z,18.20
2023-01-02T15:16:43.571Z,18.00
2023-01-02T15:19:18.799Z,17.80
2023-01-02T15:21:48.131Z,17.70
2023-01-02T15:24:25.090Z,17.50
2023-01-02T15:26:55.128Z,17.40
2023-01-02T15:29:26.787Z,17.30
2023-01-02T15:31:56.791Z,17.20
2023-01-02T15:34:30.074Z,17.10
2023-01-02T15:37:02.639Z,17.00
2023-01-02T15:39:35.457Z,16.90
2023-01-02T15:42:26.928Z,16.80
2023-01-02T15:45:15.242Z,16.70
2023-01-02T15:47:49.163Z,16.60
2023-01-02T15:50:24.213Z,16.50
2023-01-02T15:52:58.431Z,16.50
2023-01-02T15:55:28.858Z,16.40
2023-01-02T15:58:13.287Z,16.30
2023-01-02T16:00:42.593Z,16.20
2023-01-02T16:03:12.334Z,16.10
2023-01-02T16:05:51.281Z,16.10
2023-01-02T16:08:21.664Z,16.00
2023-01-02T16:10:51.530Z,15.90
2023-01-02T16:13:43.211Z,15.80
2023-01-02T16:16:15.822Z,15.70
2023-01-02T16:18:48.228Z,15.60
2023-01-02T16:21:18.441Z,15.60
2023-01-02T16:23:52.866Z,15.50
2023-01-02T16:26:23.407Z,15.40
2023-01-02T16:28:53.296Z,15.30
2023-01-02T16:31:23.837Z,15.30
2023-01-02T16:33:52.268Z,15.20
2023-01-02T16:36:24.770Z,15.20
2023-01-02T16:38:54.910Z,15.10
2023-01-02T16:42:17.729Z,15.10
2023-01-02T16:44:55.591Z,15.00
2023-01-02T16:47:25.063Z,14.90
2023-01-02T16:49:53.488Z,14.90
2023-01-02T16:52:21.939Z,14.80
2023-01-02T16:54:54.131Z,14.80
2023-01-02T16:57:24.758Z,14.70
2023-01-02T16:59:54.605Z,14.70
2023-01-02T17:02:23.126Z,14.70
2023-01-02T17:04:53.050Z,14.70
2023-01-02T17:07:22.612Z,14.60
2023-01-02T17:09:51.222Z,14.60
2023-01-02T17:12:19.584Z,14.50
2023-01-02T17:14:47.948Z,14.50
2023-01-02T17:17:17.758Z,14.50
2023-01-02T17:19:46.101Z,14.40
2023-01-02T17:22:14.686Z,14.40
2023-01-02T17:24:43.028Z,14.40
2023-01-02T17:27:11.479Z,14.30
2023-01-02T17:29:39.877Z,14.20
2023-01-02T17:32:08.301Z,14.20
2023-01-02T17:34:38.077Z,14.20
2023-01-02T17:37:06.421Z,14.10
2023-01-02T17:39:34.719Z,14.10
2023-01-02T17:42:03.070Z,14.00
2023-01-02T17:44:31.398Z,14.00
2023-01-02T17:49:50.304Z,13.90
2023-01-02T17:52:19.198Z,13.80
2023-01-02T17:54:54.631Z,13.80
2023-01-02T17:57:25.211Z,13.80
2023-01-02T17:59:53.557Z,13.70
2023-01-02T18:02:22.488Z,13.70
2023-01-02T18:04:55.194Z,13.70
2023-01-02T18:07:23.782Z,13.60
2023-01-02T18:10:09.134Z,13.60
2023-01-02T18:12:38.829Z,13.60
2023-01-02T18:15:12.926Z,13.50
2023-01-02T18:17:41.314Z,13.50
2023-01-02T18:20:14.493Z,13.50
2023-01-02T18:22:48.899Z,13.50
2023-01-02T18:25:21.461Z,13.40
2023-01-02T18:27:50.355Z,13.40
2023-01-02T18:30:24.247Z,13.40
2023-01-02T18:33:05.809Z,13.40
2023-01-02T18:35:56.748Z,13.30
2023-01-02T18:38:31.548Z,13.30
2023-01-02T18:41:01.166Z,13.30
2023-01-02T18:43:33.006Z,13.20
2023-01-02T18:46:15.987Z,13.20
2023-01-02T18:48:44.953Z,13.20
2023-01-02T18:51:19.437Z,13.20
2023-01-02T18:53:50.275Z,13.10
2023-01-02T18:56:21.245Z,13.10
2023-01-02T18:58:56.937Z,13.00
2023-01-02T19:01:28.242Z,13.00
2023-01-02T19:04:17.584Z,13.00
2023-01-02T19:06:54.453Z,13.00
2023-01-02T19:09:26.888Z,13.00
2023-01-02T19:12:21.213Z,12.90
2023-01-02T19:14:51.818Z,12.90
2023-01-02T19:17:24.559Z,12.90
2023-01-02T19:19:53.312Z,12.90
2023-01-02T19:22:24.915Z,12.90
2023-01-02T19:24:53.606Z,12.80
2023-01-02T19:27:26.281Z,12.80
2023-01-02T19:29:55.115Z,12.80
2023-01-02T19:32:29.448Z,12.80
2023-01-02T19:35:00.865Z,12.70
2023-01-02T19:37:40.868Z,12.70
2023-01-02T19:40:19.319Z,12.70
2023-01-02T19:42:48.573Z,12.70
2023-01-02T19:45:18.545Z,12.60
2023-01-02T19:47:47.396Z,12.70
2023-01-02T19:50:17.606Z,12.60
2023-01-02T19:52:47.342Z,12.60
2023-01-02T19:55:16.039Z,12.60
2023-01-02T19:57:44.342Z,12.50
2023-01-02T20:00:15.265Z,12.50
2023-01-02T20:02:45.507Z,12.40
2023-01-02T20:05:21.141Z,12.40
2023-01-02T20:07:53.154Z,12.40
2023-01-02T20:10:21.626Z,12.40
2023-01-02T20:12:50.074Z,12.30
2023-01-02T20:15:20.921Z,12.30
2023-01-02T20:17:49.517Z,12.30
2023-01-02T20:20:19.775Z,12.30
2023-01-02T20:22:51.674Z,12.30
2023-01-02T20:25:25.369Z,12.30
2023-01-02T20:27:55.944Z,12.30
2023-01-02T20:30:26.033Z,12.30
2023-01-02T20:32:54.983Z,12.20
2023-01-02T20:35:23.367Z,12.20
2023-01-02T20:37:51.746Z,12.20
2023-01-02T20:40:21.674Z,12.20
2023-01-02T20:42:50.083Z,12.20
2023-01-02T20:45:18.663Z,12.20
2023-01-02T20:47:47.013Z,12.10
2023-01-02T20:50:15.323Z,12.10
2023-01-02T20:52:43.606Z,12.10
2023-01-02T20:55:12.069Z,12.10
2023-01-02T20:57:41.779Z,12.10
2023-01-02T21:00:11.194Z,12.10
2023-01-02T21:02:39.892Z,12.10
2023-01-02T21:05:08.955Z,12.10
2023-01-02T21:07:37.242Z,12.00
2023-01-02T21:10:06.173Z,12.00
2023-01-02T21:12:51.929Z,12.00
2023-01-02T21:15:38.765Z,12.00
2023-01-02T21:18:07.182Z,12.00
2023-01-02T21:20:36.445Z,12.00
2023-01-02T21:23:07.967Z,12.00
2023-01-02T21:25:36.874Z,12.00
2023-01-02T21:28:05.857Z,11.90
2023-01-02T21:30:36.389Z,11.90
2023-01-02T21:33:04.756Z,11.90
2023-01-02T21:35:33.412Z,11.90
2023-01-02T21:38:01.780Z,11.90
2023-01-02T21:40:30.628Z,11.90
2023-01-02T21:42:58.988Z,11.90
2023-01-02T21:45:27.411Z,11.90
2023-01-02T21:47:57.396Z,11.90
2023-01-02T21:50:28.131Z,11.90
2023-01-02T21:52:56.467Z,11.90
2023-01-02T21:55:25.640Z,11.90
2023-01-02T22:00:44.681Z,11.80
2023-01-02T22:03:14.553Z,11.90
2023-01-02T22:05:43.154Z,11.90
2023-01-02T22:08:11.500Z,11.90
2023-01-02T22:10:39.789Z,11.80
2023-01-02T22:13:08.076Z,11.80
2023-01-02T22:15:39.200Z,11.80
2023-01-02T22:18:07.543Z,11.90
2023-01-02T22:20:37.248Z,11.80
2023-01-02T22:23:05.568Z,11.80
2023-01-02T22:25:34.049Z,11.80
2023-01-02T22:28:02.433Z,11.90
2023-01-02T22:30:34.799Z,11.90
2023-01-02T22:33:04.383Z,11.80
2023-01-02T22:35:32.760Z,11.80
2023-01-02T22:38:02.525Z,11.80
2023-01-02T22:40:30.878Z,11.80
2023-01-02T22:43:02.765Z,11.80
2023-01-02T22:45:36.906Z,11.80
2023-01-02T22:48:08.846Z,11.80
2023-01-02T22:50:43.588Z,11.80
2023-01-02T22:53:23.760Z,11.80
2023-01-02T22:55:52.003Z,11.80
2023-01-02T22:58:20.875Z,11.80
2023-01-02T23:00:55.002Z,11.70
2023-01-02T23:03:23.364Z,11.70
2023-01-02T23:05:51.681Z,11.70
2023-01-02T23:08:21.467Z,11.70
2023-01-02T23:10:49.753Z,11.70
2023-01-02T23:13:18.031Z,11.60
2023-01-02T23:16:00.269Z,11.60
2023-01-02T23:18:49.010Z,11.60
2023-01-02T23:21:21.479Z,11.60
2023-01-02T23:23:52.214Z,11.50
2023-01-02T23:26:21.587Z,11.50
2023-01-02T23:29:06.436Z,11.50
2023-01-02T23:31:37.086Z,11.40
2023-01-02T23:34:05.425Z,11.40
2023-01-02T23:36:33.970Z,11.40
2023-01-02T23:39:04.447Z,11.40
2023-01-02T23:41:32.815Z,11.30
2023-01-02T23:44:01.282Z,11.30
2023-01-02T23:46:29.778Z,11.30
2023-01-02T23:48:58.124Z,11.30
2023-01-02T23:51:26.664Z,11.20
2023-01-02T23:53:58.362Z,11.20
2023-01-02T23:56:31.586Z,11.20
2023-01-02T23:59:02.002Z,11.20
